Time;durP1;ratioP1;P1;durP2;ratioP2;P2;SDS_P1;SDS_P2;PMS_P1;PMS_P2;Temp;Humidity;BMP_temperature;BMP_pressure;BME280_temperature;BME280_humidity;BME280_pressure;Samples;Min_cycle;Max_cycle;Signal;HPM_P1;HPM_P2
2021/11/20 00:00:19;;;;;;;;;;;20.50;40.70;;;;;;491989;240;1075;-47
2021/11/20 00:02:20;;;;;;;;;;;20.50;40.60;;;;;;491430;240;1316;-47
2021/11/20 00:04:21;;;;;;;;;;;20.60;40.70;;;;;;491778;240;1047;-47
2021/11/20 00:06:23;;;;;;;;;;;20.50;40.60;;;;;;491817;240;1178;-47
2021/11/20 00:08:24;;;;;;;;;;;20.50;40.60;;;;;;491857;241;1059;-47
2021/11/20 00:10:25;;;;;;;;;;;20.50;40.70;;;;;;491950;240;1064;-47
2021/11/20 00:12:27;;;;;;;;;;;20.50;40.60;;;;;;491474;240;2175;-47
2021/11/20 00:14:28;;;;;;;;;;;20.60;40.70;;;;;;492015;241;1150;-46
2021/11/20 00:16:29;;;;;;;;;;;20.50;40.60;;;;;;491476;240;1308;-47
2021/11/20 00:18:31;;;;;;;;;;;20.50;40.70;;;;;;491995;241;1093;-47
2021/11/20 00:20:32;;;;;;;;;;;20.50;40.60;;;;;;491483;240;2202;-47
2021/11/20 00:22:34;;;;;;;;;;;20.50;40.60;;;;;;491446;240;1001;-47
2021/11/20 00:24:35;;;;;;;;;;;20.60;40.70;;;;;;491991;240;1141;-46
2021/11/20 00:26:36;;;;;;;;;;;20.50;40.70;;;;;;491415;240;1317;-46
2021/11/20 00:28:42;;;;;;;;;;;20.50;40.70;;;;;;491634;240;1008;-47
2021/11/20 00:30:52;;;;;;;;;;;20.50;40.60;;;;;;491522;240;1356;-47
2021/11/20 00:32:43;;;;;;;;;;;20.50;40.60;;;;;;491941;240;2180;-47
2021/11/20 00:34:44;;;;;;;;;;;20.60;40.60;;;;;;491585;240;1229;-46
2021/11/20 00:36:46;;;;;;;;;;;20.50;40.60;;;;;;491883;240;1089;-47
2021/11/20 00:38:47;;;;;;;;;;;20.50;40.60;;;;;;492026;240;1023;-46
2021/11/20 00:40:48;;;;;;;;;;;20.50;40.70;;;;;;491531;240;1410;-46
2021/11/20 00:42:50;;;;;;;;;;;20.50;40.70;;;;;;491509;240;1217;-46
2021/11/20 00:44:51;;;;;;;;;;;20.50;40.70;;;;;;491753;240;1000;-46
2021/11/20 00:46:52;;;;;;;;;;;20.50;40.70;;;;;;491497;240;1131;-47
2021/11/20 00:48:54;;;;;;;;;;;20.50;40.70;;;;;;491772;240;1225;-47
2021/11/20 00:50:55;;;;;;;;;;;20.50;40.70;;;;;;491933;240;1382;-47
2021/11/20 00:52:57;;;;;;;;;;;20.50;40.70;;;;;;491879;240;2133;-47
2021/11/20 00:54:58;;;;;;;;;;;20.50;40.70;;;;;;491623;240;1061;-46
2021/11/20 00:56:59;;;;;;;;;;;20.50;40.70;;;;;;491502;241;1178;-46
2021/11/20 00:59:01;;;;;;;;;;;20.50;40.70;;;;;;491522;240;1207;-47
2021/11/20 01:01:02;;;;;;;;;;;20.50;40.70;;;;;;491552;241;1195;-46
2021/11/20 01:03:03;;;;;;;;;;;20.50;40.70;;;;;;491588;240;1158;-47
2021/11/20 01:05:05;;;;;;;;;;;20.50;40.70;;;;;;491847;241;1057;-47
2021/11/20 01:07:06;;;;;;;;;;;20.50;40.80;;;;;;491770;241;1303;-46
2021/11/20 01:09:11;;;;;;;;;;;20.50;40.70;;;;;;491631;241;1103;-47
2021/11/20 01:11:10;;;;;;;;;;;20.50;40.70;;;;;;491812;240;1779;-47
2021/11/20 01:13:11;;;;;;;;;;;20.50;40.80;;;;;;491524;240;2200;-47
2021/11/20 01:15:13;;;;;;;;;;;20.50;40.80;;;;;;491942;240;1125;-46
2021/11/20 01:17:14;;;;;;;;;;;20.50;40.80;;;;;;491936;240;1353;-47
2021/11/20 01:19:15;;;;;;;;;;;20.50;40.80;;;;;;491585;241;1062;-47
2021/11/20 01:21:17;;;;;;;;;;;20.60;40.80;;;;;;491516;240;1225;-47
2021/11/20 01:23:18;;;;;;;;;;;20.50;40.70;;;;;;491906;240;976;-47
2021/11/20 01:25:20;;;;;;;;;;;20.50;40.80;;;;;;491733;240;1033;-47
2021/11/20 01:27:21;;;;;;;;;;;20.50;40.80;;;;;;491459;240;1216;-46
2021/11/20 01:29:23;;;;;;;;;;;20.50;40.70;;;;;;491705;240;1031;-47
2021/11/20 01:31:24;;;;;;;;;;;20.50;40.70;;;;;;491520;240;1142;-47
2021/11/20 01:33:25;;;;;;;;;;;20.50;40.70;;;;;;491825;240;2200;-47
2021/11/20 01:35:27;;;;;;;;;;;20.50;40.70;;;;;;492039;240;1107;-47
2021/11/20 01:37:28;;;;;;;;;;;20.50;40.80;;;;;;491783;240;1276;-47
2021/11/20 01:39:29;;;;;;;;;;;20.50;40.80;;;;;;491970;241;1021;-47
2021/11/20 01:41:31;;;;;;;;;;;20.50;40.80;;;;;;491525;241;1200;-47
2021/11/20 01:43:32;;;;;;;;;;;20.50;40.80;;;;;;491576;240;1154;-47
2021/11/20 01:45:33;;;;;;;;;;;20.50;40.80;;;;;;492025;240;1334;-47
2021/11/20 01:47:35;;;;;;;;;;;20.50;40.80;;;;;;491726;241;1229;-46
2021/11/20 01:49:36;;;;;;;;;;;20.50;40.80;;;;;;491528;241;1042;-47
2021/11/20 01:51:37;;;;;;;;;;;20.50;40.90;;;;;;491748;241;1489;-47
2021/11/20 01:53:39;;;;;;;;;;;20.40;40.90;;;;;;491765;240;2115;-47
2021/11/20 01:55:40;;;;;;;;;;;20.50;40.80;;;;;;491463;241;1215;-47
2021/11/20 01:57:41;;;;;;;;;;;20.40;40.80;;;;;;491434;240;1187;-47
2021/11/20 01:59:43;;;;;;;;;;;20.50;40.80;;;;;;491497;240;1128;-47
2021/11/20 02:01:44;;;;;;;;;;;20.50;40.70;;;;;;491430;240;1486;-47
2021/11/20 02:03:45;;;;;;;;;;;20.50;40.80;;;;;;492019;240;1209;-47
2021/11/20 02:05:47;;;;;;;;;;;20.50;40.80;;;;;;491538;241;1370;-46
2021/11/20 02:07:48;;;;;;;;;;;20.50;40.80;;;;;;491842;240;1239;-47
2021/11/20 02:09:49;;;;;;;;;;;20.50;40.80;;;;;;491991;240;1103;-47
2021/11/20 02:11:51;;;;;;;;;;;20.50;40.70;;;;;;491743;240;1195;-47
2021/11/20 02:13:52;;;;;;;;;;;20.50;40.70;;;;;;491759;240;2199;-47
2021/11/20 02:15:55;;;;;;;;;;;20.50;40.70;;;;;;491531;240;1113;-46
2021/11/20 02:17:55;;;;;;;;;;;20.50;40.70;;;;;;492024;240;2398;-47
2021/11/20 02:19:56;;;;;;;;;;;20.50;40.80;;;;;;492070;240;1055;-47
2021/11/20 02:21:57;;;;;;;;;;;20.40;40.80;;;;;;491699;240;1185;-47
2021/11/20 02:23:59;;;;;;;;;;;20.40;40.80;;;;;;492014;240;1235;-47
2021/11/20 02:26:01;;;;;;;;;;;20.50;40.80;;;;;;491822;240;1121;-47
2021/11/20 02:28:01;;;;;;;;;;;20.50;40.80;;;;;;491544;240;2133;-47
2021/11/20 02:30:03;;;;;;;;;;;20.50;40.80;;;;;;491640;240;1119;-46
2021/11/20 02:32:04;;;;;;;;;;;20.50;40.80;;;;;;491496;240;1325;-47
2021/11/20 02:34:05;;;;;;;;;;;20.40;40.70;;;;;;491943;240;2195;-47
2021/11/20 02:36:07;;;;;;;;;;;20.50;40.80;;;;;;491528;240;1356;-46
2021/11/20 02:38:08;;;;;;;;;;;20.50;40.70;;;;;;491932;240;1239;-47
2021/11/20 02:40:09;;;;;;;;;;;20.50;40.70;;;;;;491622;240;1139;-47
2021/11/20 02:42:11;;;;;;;;;;;20.50;40.70;;;;;;491877;241;1346;-47
2021/11/20 02:44:13;;;;;;;;;;;20.50;40.80;;;;;;491775;240;1199;-47
2021/11/20 02:46:14;;;;;;;;;;;20.50;40.80;;;;;;491782;240;1401;-47
2021/11/20 02:48:15;;;;;;;;;;;20.50;40.80;;;;;;492017;240;1244;-46
2021/11/20 02:50:16;;;;;;;;;;;20.50;40.90;;;;;;491939;241;1056;-47
2021/11/20 02:52:18;;;;;;;;;;;20.40;40.80;;;;;;491664;240;1200;-47
2021/11/20 02:54:19;;;;;;;;;;;20.40;40.80;;;;;;491710;240;2129;-47
2021/11/20 02:56:20;;;;;;;;;;;20.40;40.90;;;;;;491891;240;1336;-47
2021/11/20 02:58:22;;;;;;;;;;;20.40;40.90;;;;;;491722;240;1201;-47
2021/11/20 03:00:23;;;;;;;;;;;20.50;40.90;;;;;;491721;240;1139;-47
2021/11/20 03:02:24;;;;;;;;;;;20.50;40.80;;;;;;491912;240;1515;-46
2021/11/20 03:04:26;;;;;;;;;;;20.40;40.80;;;;;;492044;241;1080;-47
2021/11/20 03:06:28;;;;;;;;;;;20.40;40.90;;;;;;491690;240;2049;-47
2021/11/20 03:08:28;;;;;;;;;;;20.40;40.90;;;;;;491594;240;1408;-47
2021/11/20 03:10:31;;;;;;;;;;;20.40;40.90;;;;;;491984;241;1094;-46
2021/11/20 03:12:32;;;;;;;;;;;20.40;40.90;;;;;;491827;240;1134;-47
2021/11/20 03:14:33;;;;;;;;;;;20.50;40.90;;;;;;491562;240;2172;-47
2021/11/20 03:16:35;;;;;;;;;;;20.50;40.80;;;;;;491975;240;1271;-47
2021/11/20 03:18:36;;;;;;;;;;;20.50;40.90;;;;;;492062;240;1011;-47
2021/11/20 03:20:37;;;;;;;;;;;20.40;40.90;;;;;;491815;240;1055;-46
2021/11/20 03:22:39;;;;;;;;;;;20.40;40.80;;;;;;491529;240;1325;-47
2021/11/20 03:24:40;;;;;;;;;;;20.40;40.80;;;;;;491854;241;1063;-47
2021/11/20 03:26:41;;;;;;;;;;;20.50;40.90;;;;;;491889;240;1016;-47
2021/11/20 03:28:43;;;;;;;;;;;20.50;40.80;;;;;;491746;240;1246;-47
2021/11/20 03:30:44;;;;;;;;;;;20.40;40.90;;;;;;491520;240;1016;-47
2021/11/20 03:32:45;;;;;;;;;;;20.40;40.90;;;;;;491862;240;1213;-47
2021/11/20 03:34:47;;;;;;;;;;;20.40;40.90;;;;;;491525;241;2121;-47
2021/11/20 03:36:48;;;;;;;;;;;20.40;40.80;;;;;;491948;241;1058;-47
2021/11/20 03:38:49;;;;;;;;;;;20.50;40.90;;;;;;491906;240;1108;-47
2021/11/20 03:40:51;;;;;;;;;;;20.40;40.90;;;;;;491529;240;1160;-46
2021/11/20 03:42:52;;;;;;;;;;;20.40;40.90;;;;;;491581;241;1038;-46
2021/11/20 03:44:53;;;;;;;;;;;20.50;40.90;;;;;;491799;241;1184;-47
2021/11/20 03:46:55;;;;;;;;;;;20.40;40.90;;;;;;491502;240;1239;-47
2021/11/20 03:48:56;;;;;;;;;;;20.40;40.90;;;;;;492058;240;1087;-47
2021/11/20 03:50:57;;;;;;;;;;;20.40;40.90;;;;;;491511;241;1103;-47
2021/11/20 03:52:59;;;;;;;;;;;20.40;40.90;;;;;;491784;241;1316;-47
2021/11/20 03:55:00;;;;;;;;;;;20.40;40.90;;;;;;491722;240;1044;-47
2021/11/20 03:57:01;;;;;;;;;;;20.40;40.80;;;;;;492010;240;1229;-47
2021/11/20 03:59:03;;;;;;;;;;;20.40;40.80;;;;;;492076;240;1010;-47
2021/11/20 04:01:06;;;;;;;;;;;20.40;40.80;;;;;;491582;240;1234;-47
2021/11/20 04:03:05;;;;;;;;;;;20.40;40.80;;;;;;491961;240;2079;-47
2021/11/20 04:05:07;;;;;;;;;;;20.40;40.80;;;;;;491600;240;992;-47
2021/11/20 04:07:08;;;;;;;;;;;20.40;40.80;;;;;;491501;240;1257;-46
2021/11/20 04:09:13;;;;;;;;;;;20.40;40.90;;;;;;491721;240;1072;-47
2021/11/20 04:11:14;;;;;;;;;;;20.40;41.00;;;;;;491556;240;2074;-47
2021/11/20 04:13:15;;;;;;;;;;;20.40;40.90;;;;;;491741;240;2117;-47
2021/11/20 04:15:16;;;;;;;;;;;20.40;40.90;;;;;;491579;240;1175;-47
2021/11/20 04:17:18;;;;;;;;;;;20.40;40.90;;;;;;491809;240;1340;-47
2021/11/20 04:19:19;;;;;;;;;;;20.40;41.00;;;;;;491750;240;2112;-47
2021/11/20 04:21:20;;;;;;;;;;;20.40;41.00;;;;;;491899;240;1040;-47
2021/11/20 04:23:22;;;;;;;;;;;20.40;41.00;;;;;;491549;240;1286;-47
2021/11/20 04:25:23;;;;;;;;;;;20.50;40.90;;;;;;491588;240;1048;-47
2021/11/20 04:27:24;;;;;;;;;;;20.40;40.90;;;;;;491819;240;1197;-47
2021/11/20 04:29:26;;;;;;;;;;;20.40;40.90;;;;;;491870;240;1228;-46
2021/11/20 04:31:27;;;;;;;;;;;20.40;40.90;;;;;;491454;240;1224;-47
2021/11/20 04:33:28;;;;;;;;;;;20.40;40.90;;;;;;491675;240;2207;-47
2021/11/20 04:35:30;;;;;;;;;;;20.30;41.00;;;;;;491674;240;1034;-47
2021/11/20 04:37:31;;;;;;;;;;;20.40;41.00;;;;;;491507;240;1351;-47
2021/11/20 04:39:32;;;;;;;;;;;20.40;41.00;;;;;;491639;240;1363;-46
2021/11/20 04:41:34;;;;;;;;;;;20.40;41.00;;;;;;491672;240;1311;-47
2021/11/20 04:43:35;;;;;;;;;;;20.30;40.90;;;;;;491621;240;948;-47
2021/11/20 04:45:36;;;;;;;;;;;20.40;41.00;;;;;;491763;240;1346;-47
2021/11/20 04:47:38;;;;;;;;;;;20.40;41.00;;;;;;491673;240;1372;-47
2021/11/20 04:49:39;;;;;;;;;;;20.40;40.90;;;;;;491699;240;1073;-47
2021/11/20 04:51:40;;;;;;;;;;;20.40;40.90;;;;;;491679;240;1282;-47
2021/11/20 04:53:42;;;;;;;;;;;20.40;41.00;;;;;;491533;240;2252;-47
2021/11/20 04:55:43;;;;;;;;;;;20.40;40.90;;;;;;491135;241;1175;-46
2021/11/20 04:57:45;;;;;;;;;;;20.40;41.00;;;;;;491512;241;1207;-46
2021/11/20 04:59:46;;;;;;;;;;;20.40;40.90;;;;;;491548;240;2472;-47
2021/11/20 05:01:47;;;;;;;;;;;20.60;40.70;;;;;;491409;240;1219;-47
2021/11/20 05:03:48;;;;;;;;;;;20.80;40.40;;;;;;491984;240;1516;-47
2021/11/20 05:05:50;;;;;;;;;;;20.90;40.00;;;;;;491693;240;1456;-47
2021/11/20 05:07:51;;;;;;;;;;;21.10;39.70;;;;;;491838;240;1166;-47
2021/11/20 05:09:55;;;;;;;;;;;21.10;39.50;;;;;;491566;240;1022;-47
2021/11/20 05:11:54;;;;;;;;;;;21.20;39.30;;;;;;491570;240;1918;-47
2021/11/20 05:13:55;;;;;;;;;;;21.30;39.20;;;;;;491824;240;2109;-47
2021/11/20 05:15:57;;;;;;;;;;;21.40;39.10;;;;;;491737;240;1266;-47
2021/11/20 05:17:58;;;;;;;;;;;21.40;39.00;;;;;;491547;240;1312;-47
2021/11/20 05:19:59;;;;;;;;;;;21.50;38.90;;;;;;491698;240;1035;-47
2021/11/20 05:22:00;;;;;;;;;;;21.50;38.80;;;;;;491692;240;1476;-47
2021/11/20 05:24:02;;;;;;;;;;;21.50;38.70;;;;;;491550;240;1227;-47
2021/11/20 05:26:03;;;;;;;;;;;21.60;38.80;;;;;;491638;240;1564;-46
2021/11/20 05:28:04;;;;;;;;;;;21.60;38.70;;;;;;491504;240;1199;-47
2021/11/20 05:30:08;;;;;;;;;;;21.60;38.70;;;;;;491547;240;1108;-46
2021/11/20 05:32:07;;;;;;;;;;;21.60;38.60;;;;;;491451;240;2258;-47
2021/11/20 05:34:08;;;;;;;;;;;21.70;38.60;;;;;;491559;240;2113;-47
2021/11/20 05:36:10;;;;;;;;;;;21.70;38.60;;;;;;491902;240;1138;-47
2021/11/20 05:38:11;;;;;;;;;;;21.70;38.50;;;;;;491589;240;1197;-47
2021/11/20 05:40:13;;;;;;;;;;;21.80;38.50;;;;;;492053;240;980;-47
2021/11/20 05:42:14;;;;;;;;;;;21.80;38.50;;;;;;491458;240;2146;-47
2021/11/20 05:44:15;;;;;;;;;;;21.80;38.40;;;;;;492053;240;932;-47
2021/11/20 05:46:16;;;;;;;;;;;21.80;38.40;;;;;;491545;240;1156;-47
2021/11/20 05:48:18;;;;;;;;;;;21.80;38.40;;;;;;491541;240;1218;-47
2021/11/20 05:50:19;;;;;;;;;;;21.90;38.40;;;;;;491570;240;1095;-47
2021/11/20 05:52:21;;;;;;;;;;;21.80;38.20;;;;;;491924;240;1019;-47
2021/11/20 05:54:22;;;;;;;;;;;21.90;38.30;;;;;;491531;240;2196;-47
2021/11/20 05:56:23;;;;;;;;;;;21.90;38.20;;;;;;491630;240;1193;-47
2021/11/20 05:58:25;;;;;;;;;;;21.90;38.20;;;;;;491593;240;1128;-47
2021/11/20 06:00:26;;;;;;;;;;;21.90;38.20;;;;;;491557;240;1204;-47
2021/11/20 06:02:27;;;;;;;;;;;22.00;38.20;;;;;;491541;240;1227;-47
2021/11/20 06:04:31;;;;;;;;;;;21.90;38.20;;;;;;491614;240;1097;-47
2021/11/20 06:06:30;;;;;;;;;;;22.00;38.20;;;;;;491720;240;2044;-47
2021/11/20 06:08:31;;;;;;;;;;;22.00;38.20;;;;;;491912;240;1066;-47
2021/11/20 06:10:33;;;;;;;;;;;22.00;38.10;;;;;;492020;240;1013;-47
2021/11/20 06:12:34;;;;;;;;;;;22.00;38.10;;;;;;491513;240;1244;-47
2021/11/20 06:14:35;;;;;;;;;;;22.00;38.10;;;;;;492010;240;2136;-47
2021/11/20 06:16:37;;;;;;;;;;;22.00;38.10;;;;;;491816;240;1242;-47
2021/11/20 06:18:38;;;;;;;;;;;22.00;38.10;;;;;;492048;240;1496;-47
2021/11/20 06:20:39;;;;;;;;;;;22.10;38.10;;;;;;491582;240;990;-47
2021/11/20 06:22:41;;;;;;;;;;;22.10;38.10;;;;;;491629;240;1287;-47
2021/11/20 06:24:42;;;;;;;;;;;22.10;38.00;;;;;;492072;240;1062;-47
2021/11/20 06:26:46;;;;;;;;;;;22.10;38.00;;;;;;491809;240;1378;-47
2021/11/20 06:28:45;;;;;;;;;;;22.10;38.00;;;;;;491669;240;2270;-47
2021/11/20 06:30:47;;;;;;;;;;;22.10;38.00;;;;;;491799;240;1233;-47
2021/11/20 06:32:48;;;;;;;;;;;22.10;38.00;;;;;;491525;240;1241;-47
2021/11/20 06:34:49;;;;;;;;;;;22.10;38.00;;;;;;491848;240;2192;-47
2021/11/20 06:36:51;;;;;;;;;;;22.20;38.00;;;;;;491888;240;1116;-47
2021/11/20 06:38:52;;;;;;;;;;;22.20;38.00;;;;;;492062;240;1046;-47
2021/11/20 06:40:54;;;;;;;;;;;22.20;38.00;;;;;;491552;240;1438;-47
2021/11/20 06:42:55;;;;;;;;;;;22.20;38.00;;;;;;491839;240;1218;-47
2021/11/20 06:44:56;;;;;;;;;;;22.20;38.00;;;;;;491566;240;1096;-46
2021/11/20 06:46:58;;;;;;;;;;;22.20;38.00;;;;;;491510;240;1170;-47
2021/11/20 06:48:59;;;;;;;;;;;22.20;37.90;;;;;;491566;240;996;-46
2021/11/20 06:51:00;;;;;;;;;;;22.20;37.90;;;;;;491691;240;1202;-47
2021/11/20 06:53:02;;;;;;;;;;;22.20;37.90;;;;;;491483;240;1397;-46
2021/11/20 06:55:04;;;;;;;;;;;22.20;37.90;;;;;;491753;240;2191;-47
2021/11/20 06:57:05;;;;;;;;;;;22.30;37.90;;;;;;491473;240;2236;-47
2021/11/20 06:59:13;;;;;;;;;;;22.20;37.80;;;;;;491795;240;1162;-47
2021/11/20 07:01:09;;;;;;;;;;;22.20;37.80;;;;;;491491;240;2390;-46
2021/11/20 07:03:11;;;;;;;;;;;22.30;37.90;;;;;;491527;240;1220;-47
2021/11/20 07:05:13;;;;;;;;;;;22.20;37.80;;;;;;491583;240;1108;-47
2021/11/20 07:07:14;;;;;;;;;;;22.30;37.90;;;;;;491614;240;1197;-47
2021/11/20 07:09:15;;;;;;;;;;;22.30;37.80;;;;;;491579;240;1261;-47
2021/11/20 07:11:17;;;;;;;;;;;22.30;37.80;;;;;;491895;240;1185;-47
2021/11/20 07:13:19;;;;;;;;;;;22.30;37.80;;;;;;491561;240;1260;-47
2021/11/20 07:15:19;;;;;;;;;;;22.30;37.80;;;;;;491535;240;2396;-47
2021/11/20 07:17:21;;;;;;;;;;;22.30;37.80;;;;;;491434;240;1235;-47
2021/11/20 07:19:22;;;;;;;;;;;22.30;37.80;;;;;;491578;240;1004;-47
2021/11/20 07:21:25;;;;;;;;;;;22.30;37.80;;;;;;491980;240;1221;-47
2021/11/20 07:23:28;;;;;;;;;;;22.30;37.80;;;;;;491782;240;2448;-47
2021/11/20 07:25:26;;;;;;;;;;;22.30;37.80;;;;;;492043;240;2464;-47
2021/11/20 07:27:28;;;;;;;;;;;22.40;37.80;;;;;;491882;240;1182;-47
2021/11/20 07:29:29;;;;;;;;;;;22.30;37.80;;;;;;491759;240;1057;-47
2021/11/20 07:31:30;;;;;;;;;;;22.30;37.80;;;;;;491925;240;1314;-47
2021/11/20 07:33:33;;;;;;;;;;;22.40;37.80;;;;;;491551;240;1262;-47
2021/11/20 07:35:34;;;;;;;;;;;22.40;37.80;;;;;;491668;240;2121;-47
2021/11/20 07:37:35;;;;;;;;;;;22.40;37.80;;;;;;491394;240;1217;-47
2021/11/20 07:39:36;;;;;;;;;;;22.40;37.80;;;;;;491716;240;1106;-47
2021/11/20 07:41:38;;;;;;;;;;;22.40;37.80;;;;;;491533;240;1316;-47
2021/11/20 07:43:39;;;;;;;;;;;22.30;37.80;;;;;;492044;240;1201;-47
2021/11/20 07:45:40;;;;;;;;;;;22.40;37.80;;;;;;491963;240;1161;-47
2021/11/20 07:47:42;;;;;;;;;;;22.40;37.80;;;;;;491721;240;1239;-47
2021/11/20 07:49:43;;;;;;;;;;;22.40;37.80;;;;;;491597;240;990;-47
2021/11/20 07:51:45;;;;;;;;;;;22.40;37.80;;;;;;491746;240;1349;-47
2021/11/20 07:53:46;;;;;;;;;;;22.40;37.70;;;;;;492021;240;1111;-47
2021/11/20 07:55:47;;;;;;;;;;;22.40;37.70;;;;;;491651;240;2117;-47
2021/11/20 07:57:49;;;;;;;;;;;22.40;37.80;;;;;;491483;240;1168;-47
2021/11/20 07:59:50;;;;;;;;;;;22.40;37.70;;;;;;491536;240;1047;-47
2021/11/20 08:01:51;;;;;;;;;;;22.40;37.70;;;;;;491476;240;1329;-47
2021/11/20 08:03:53;;;;;;;;;;;22.40;37.70;;;;;;491601;240;1205;-47
2021/11/20 08:05:54;;;;;;;;;;;22.40;37.70;;;;;;492026;240;1173;-47
2021/11/20 08:07:55;;;;;;;;;;;22.50;37.80;;;;;;491511;240;2086;-47
2021/11/20 08:09:57;;;;;;;;;;;22.40;37.70;;;;;;491713;240;1033;-47
2021/11/20 08:11:58;;;;;;;;;;;22.40;37.70;;;;;;491823;240;1251;-47
2021/11/20 08:14:00;;;;;;;;;;;22.50;37.80;;;;;;491559;240;1187;-47
2021/11/20 08:16:01;;;;;;;;;;;22.40;37.70;;;;;;491900;240;2191;-47
2021/11/20 08:18:02;;;;;;;;;;;22.50;37.70;;;;;;491451;240;1222;-47
2021/11/20 08:20:03;;;;;;;;;;;22.50;37.70;;;;;;491583;240;1035;-47
2021/11/20 08:22:05;;;;;;;;;;;22.50;37.70;;;;;;491613;240;1171;-47
2021/11/20 08:24:06;;;;;;;;;;;22.50;37.70;;;;;;491530;240;1790;-47
2021/11/20 08:26:07;;;;;;;;;;;22.50;37.70;;;;;;491636;240;1183;-47
2021/11/20 08:28:09;;;;;;;;;;;22.50;37.70;;;;;;491563;240;1362;-47
2021/11/20 08:30:10;;;;;;;;;;;22.50;37.70;;;;;;491510;240;1213;-47
2021/11/20 08:32:11;;;;;;;;;;;22.50;37.70;;;;;;491696;240;1397;-47
2021/11/20 08:34:13;;;;;;;;;;;22.50;37.70;;;;;;491574;240;1201;-47
2021/11/20 08:36:14;;;;;;;;;;;22.50;37.70;;;;;;491511;240;2195;-47
2021/11/20 08:38:15;;;;;;;;;;;22.50;37.70;;;;;;491974;240;1031;-47
2021/11/20 08:40:18;;;;;;;;;;;22.50;37.70;;;;;;491718;240;1063;-47
2021/11/20 08:42:18;;;;;;;;;;;22.50;37.70;;;;;;491633;240;2268;-47
2021/11/20 08:44:19;;;;;;;;;;;22.50;37.70;;;;;;492002;240;950;-47
2021/11/20 08:46:22;;;;;;;;;;;22.50;37.70;;;;;;491692;240;1122;-47
2021/11/20 08:48:22;;;;;;;;;;;22.50;37.70;;;;;;491855;240;2284;-47
2021/11/20 08:50:23;;;;;;;;;;;22.60;37.70;;;;;;491918;240;1081;-47
2021/11/20 08:52:25;;;;;;;;;;;22.60;37.60;;;;;;491576;240;1197;-47
2021/11/20 08:54:27;;;;;;;;;;;22.60;37.70;;;;;;491569;240;1236;-47
2021/11/20 08:56:27;;;;;;;;;;;22.50;37.60;;;;;;491646;240;2191;-47
2021/11/20 08:58:29;;;;;;;;;;;22.60;37.70;;;;;;491596;240;1023;-47
2021/11/20 09:00:30;;;;;;;;;;;22.60;37.70;;;;;;491516;240;1271;-47
2021/11/20 09:02:34;;;;;;;;;;;22.60;37.70;;;;;;491468;240;1546;-47
2021/11/20 09:04:35;;;;;;;;;;;22.60;37.70;;;;;;491675;240;2214;-47
2021/11/20 09:06:34;;;;;;;;;;;22.60;37.70;;;;;;491431;240;2372;-47
2021/11/20 09:08:35;;;;;;;;;;;22.60;37.60;;;;;;491978;240;1078;-46
2021/11/20 09:10:37;;;;;;;;;;;22.60;37.60;;;;;;491587;240;1417;-47
2021/11/20 09:12:38;;;;;;;;;;;22.60;37.60;;;;;;491826;240;1250;-47
2021/11/20 09:14:39;;;;;;;;;;;22.60;37.60;;;;;;491561;240;1056;-47
2021/11/20 09:16:42;;;;;;;;;;;22.60;37.60;;;;;;491499;240;2203;-47
2021/11/20 09:18:42;;;;;;;;;;;22.60;37.60;;;;;;491525;242;1992;-47
2021/11/20 09:20:43;;;;;;;;;;;22.60;37.60;;;;;;491553;240;1112;-47
2021/11/20 09:22:45;;;;;;;;;;;22.60;37.70;;;;;;491821;240;1289;-47
2021/11/20 09:24:47;;;;;;;;;;;22.60;37.60;;;;;;491600;240;1005;-47
2021/11/20 09:26:48;;;;;;;;;;;22.60;37.60;;;;;;491992;240;1324;-47
2021/11/20 09:28:49;;;;;;;;;;;22.60;37.60;;;;;;491619;240;1201;-47
2021/11/20 09:30:51;;;;;;;;;;;22.60;37.70;;;;;;491619;240;1079;-47
2021/11/20 09:32:52;;;;;;;;;;;22.60;37.60;;;;;;491868;240;1180;-47
2021/11/20 09:34:54;;;;;;;;;;;22.60;37.70;;;;;;491673;240;1243;-47
2021/11/20 09:36:55;;;;;;;;;;;22.60;37.70;;;;;;491479;240;2248;-47
2021/11/20 09:38:57;;;;;;;;;;;22.70;37.70;;;;;;492051;240;1045;-47
2021/11/20 09:40:58;;;;;;;;;;;22.60;37.60;;;;;;491720;240;1079;-47
2021/11/20 09:43:01;;;;;;;;;;;22.70;37.70;;;;;;492076;240;1050;-47
2021/11/20 09:45:02;;;;;;;;;;;22.70;37.70;;;;;;491716;240;2043;-47
2021/11/20 09:47:02;;;;;;;;;;;22.60;37.60;;;;;;491370;240;2808;-47
2021/11/20 09:49:04;;;;;;;;;;;22.60;37.60;;;;;;491624;240;1239;-47
2021/11/20 09:51:05;;;;;;;;;;;22.70;37.70;;;;;;491782;240;1498;-47
2021/11/20 09:53:07;;;;;;;;;;;22.70;37.60;;;;;;491647;240;1224;-47
2021/11/20 09:55:08;;;;;;;;;;;22.70;37.60;;;;;;491597;240;974;-47
2021/11/20 09:57:10;;;;;;;;;;;22.70;37.60;;;;;;491476;240;2116;-47
2021/11/20 09:59:11;;;;;;;;;;;22.70;37.60;;;;;;491603;240;1051;-47
2021/11/20 10:01:12;;;;;;;;;;;22.70;37.60;;;;;;491521;240;1438;-47
2021/11/20 10:03:14;;;;;;;;;;;22.70;37.60;;;;;;492033;240;1057;-46
2021/11/20 10:05:15;;;;;;;;;;;22.70;37.60;;;;;;491675;240;1184;-47
2021/11/20 10:07:16;;;;;;;;;;;22.70;37.70;;;;;;491718;240;1267;-47
2021/11/20 10:09:18;;;;;;;;;;;22.70;37.60;;;;;;491570;240;1037;-47
2021/11/20 10:11:19;;;;;;;;;;;22.70;37.60;;;;;;491512;240;1205;-47
2021/11/20 10:13:20;;;;;;;;;;;22.70;37.60;;;;;;492035;240;979;-47
2021/11/20 10:15:22;;;;;;;;;;;22.70;37.60;;;;;;491536;240;2190;-47
2021/11/20 10:17:23;;;;;;;;;;;22.70;37.70;;;;;;491727;240;1248;-47
2021/11/20 10:19:25;;;;;;;;;;;22.70;37.60;;;;;;491704;240;1118;-47
2021/11/20 10:21:26;;;;;;;;;;;22.70;37.60;;;;;;491769;240;2224;-47
2021/11/20 10:23:27;;;;;;;;;;;22.70;37.60;;;;;;491750;240;1251;-47
2021/11/20 10:25:28;;;;;;;;;;;22.70;37.60;;;;;;491996;240;1207;-47
2021/11/20 10:27:30;;;;;;;;;;;22.70;37.60;;;;;;491554;240;1192;-47
2021/11/20 10:29:31;;;;;;;;;;;22.70;37.60;;;;;;491604;240;1074;-47
2021/11/20 10:31:32;;;;;;;;;;;22.70;37.60;;;;;;491497;240;1389;-47
2021/11/20 10:33:34;;;;;;;;;;;22.70;37.60;;;;;;491783;240;1273;-46
2021/11/20 10:35:35;;;;;;;;;;;22.80;37.60;;;;;;491606;240;2196;-47
2021/11/20 10:37:36;;;;;;;;;;;22.70;37.60;;;;;;491920;240;1244;-47
2021/11/20 10:39:38;;;;;;;;;;;22.80;37.60;;;;;;491732;240;1229;-47
2021/11/20 10:41:39;;;;;;;;;;;22.70;37.60;;;;;;491768;240;1225;-47
2021/11/20 10:43:40;;;;;;;;;;;22.80;37.60;;;;;;491667;240;1099;-47
2021/11/20 10:45:42;;;;;;;;;;;22.80;37.60;;;;;;491499;240;1152;-47
2021/11/20 10:47:43;;;;;;;;;;;22.70;37.60;;;;;;491695;240;1153;-47
2021/11/20 10:49:44;;;;;;;;;;;22.80;37.60;;;;;;491846;240;1281;-47
2021/11/20 10:51:46;;;;;;;;;;;22.80;37.60;;;;;;491720;240;1184;-47
2021/11/20 10:53:47;;;;;;;;;;;22.80;37.60;;;;;;491569;240;1039;-47
2021/11/20 10:55:48;;;;;;;;;;;22.80;37.60;;;;;;491933;240;2188;-47
2021/11/20 10:57:50;;;;;;;;;;;22.80;37.60;;;;;;491740;240;1306;-47
2021/11/20 10:59:51;;;;;;;;;;;22.80;37.60;;;;;;491512;240;1031;-47
2021/11/20 11:01:52;;;;;;;;;;;22.80;37.60;;;;;;491795;240;1256;-47
2021/11/20 11:03:54;;;;;;;;;;;22.80;37.60;;;;;;491952;240;1109;-47
2021/11/20 11:05:55;;;;;;;;;;;22.80;37.60;;;;;;491636;240;1128;-47
2021/11/20 11:07:56;;;;;;;;;;;22.80;37.60;;;;;;491492;240;1234;-47
2021/11/20 11:09:58;;;;;;;;;;;22.80;37.60;;;;;;491635;240;1035;-47
2021/11/20 11:11:59;;;;;;;;;;;22.80;37.60;;;;;;491464;240;1385;-47
2021/11/20 11:14:01;;;;;;;;;;;22.80;37.50;;;;;;491510;240;1229;-47
2021/11/20 11:16:02;;;;;;;;;;;22.80;37.60;;;;;;491936;240;2176;-47
2021/11/20 11:18:03;;;;;;;;;;;22.80;37.60;;;;;;491472;240;1212;-47
2021/11/20 11:20:05;;;;;;;;;;;22.80;37.60;;;;;;491886;240;1151;-47
2021/11/20 11:22:07;;;;;;;;;;;22.80;37.60;;;;;;491701;240;1403;-47
2021/11/20 11:24:08;;;;;;;;;;;22.80;37.50;;;;;;491969;240;2463;-47
2021/11/20 11:26:09;;;;;;;;;;;22.80;37.70;;;;;;491493;240;2309;-47
2021/11/20 11:28:10;;;;;;;;;;;22.70;37.80;;;;;;491632;240;1234;-47
2021/11/20 11:30:12;;;;;;;;;;;22.60;38.00;;;;;;491927;240;998;-47
2021/11/20 11:32:13;;;;;;;;;;;22.40;38.30;;;;;;491484;240;1216;-47
2021/11/20 11:34:14;;;;;;;;;;;22.30;38.60;;;;;;491574;240;1032;-47
2021/11/20 11:36:16;;;;;;;;;;;22.10;38.80;;;;;;491463;240;2192;-46
2021/11/20 11:38:17;;;;;;;;;;;22.00;38.90;;;;;;491793;240;1199;-47
2021/11/20 11:40:18;;;;;;;;;;;21.90;39.20;;;;;;491544;240;1069;-47
2021/11/20 11:42:19;;;;;;;;;;;21.90;39.30;;;;;;491517;240;1149;-46
2021/11/20 11:44:21;;;;;;;;;;;21.80;39.50;;;;;;491847;240;1063;-47
2021/11/20 11:46:23;;;;;;;;;;;21.80;39.60;;;;;;491706;240;1163;-47
2021/11/20 11:48:26;;;;;;;;;;;21.70;39.70;;;;;;491738;240;1396;-47
2021/11/20 11:50:25;;;;;;;;;;;21.70;39.80;;;;;;491527;240;2312;-47
2021/11/20 11:52:26;;;;;;;;;;;21.70;39.80;;;;;;491414;240;1126;-47
2021/11/20 11:54:28;;;;;;;;;;;21.60;39.90;;;;;;491965;240;1071;-47
2021/11/20 11:56:29;;;;;;;;;;;21.50;39.90;;;;;;491865;240;2129;-47